sensor_id;sensor_type;location;lat;lon;timestamp;temperature;humidity
2174;DHT22;1093;51.424;11.764;2023-11-19T00:00:26;5.80;1.40
2174;DHT22;1093;51.424;11.764;2023-11-19T00:02:55;5.80;1.40
2174;DHT22;1093;51.424;11.764;2023-11-19T00:05:21;5.80;1.40
2174;DHT22;1093;51.424;11.764;2023-11-19T00:07:48;5.80;1.40
2174;DHT22;1093;51.424;11.764;2023-11-19T00:10:16;5.80;1.40
2174;DHT22;1093;51.424;11.764;2023-11-19T00:12:46;5.80;1.40
2174;DHT22;1093;51.424;11.764;2023-11-19T00:15:13;5.80;1.40
2174;DHT22;1093;51.424;11.764;2023-11-19T00:17:40;5.70;1.40
2174;DHT22;1093;51.424;11.764;2023-11-19T00:20:12;5.80;1.40
2174;DHT22;1093;51.424;11.764;2023-11-19T00:22:39;5.70;1.40
2174;DHT22;1093;51.424;11.764;2023-11-19T00:25:07;5.70;1.40
2174;DHT22;1093;51.424;11.764;2023-11-19T00:27:34;5.70;1.40
2174;DHT22;1093;51.424;11.764;2023-11-19T00:30:03;5.70;1.40
2174;DHT22;1093;51.424;11.764;2023-11-19T00:32:31;5.70;1.40
2174;DHT22;1093;51.424;11.764;2023-11-19T00:34:58;5.80;1.40
2174;DHT22;1093;51.424;11.764;2023-11-19T00:37:26;5.70;1.40
2174;DHT22;1093;51.424;11.764;2023-11-19T00:39:53;5.80;1.40
2174;DHT22;1093;51.424;11.764;2023-11-19T00:42:21;5.70;1.40
2174;DHT22;1093;51.424;11.764;2023-11-19T00:44:49;5.70;1.40
2174;DHT22;1093;51.424;11.764;2023-11-19T00:47:16;5.70;1.40
2174;DHT22;1093;51.424;11.764;2023-11-19T00:49:45;5.70;1.40
2174;DHT22;1093;51.424;11.764;2023-11-19T00:52:12;5.70;1.40
2174;DHT22;1093;51.424;11.764;2023-11-19T00:54:40;5.70;1.40
2174;DHT22;1093;51.424;11.764;2023-11-19T00:57:07;5.70;1.40
2174;DHT22;1093;51.424;11.764;2023-11-19T00:59:34;5.60;1.40
2174;DHT22;1093;51.424;11.764;2023-11-19T01:02:01;5.60;1.40
2174;DHT22;1093;51.424;11.764;2023-11-19T01:04:29;5.60;1.40
2174;DHT22;1093;51.424;11.764;2023-11-19T01:06:55;5.60;1.40
2174;DHT22;1093;51.424;11.764;2023-11-19T01:09:22;5.60;1.40
2174;DHT22;1093;51.424;11.764;2023-11-19T01:11:51;5.70;1.40
2174;DHT22;1093;51.424;11.764;2023-11-19T01:14:18;5.70;1.40
2174;DHT22;1093;51.424;11.764;2023-11-19T01:16:45;5.70;1.40
2174;DHT22;1093;51.424;11.764;2023-11-19T01:19:11;5.70;1.40
2174;DHT22;1093;51.424;11.764;2023-11-19T01:21:38;5.70;1.40
2174;DHT22;1093;51.424;11.764;2023-11-19T01:24:06;5.70;1.40
2174;DHT22;1093;51.424;11.764;2023-11-19T01:26:35;5.70;1.40
2174;DHT22;1093;51.424;11.764;2023-11-19T01:29:03;5.70;1.40
2174;DHT22;1093;51.424;11.764;2023-11-19T01:31:30;5.70;1.40
2174;DHT22;1093;51.424;11.764;2023-11-19T01:33:57;5.70;1.40
2174;DHT22;1093;51.424;11.764;2023-11-19T01:36:24;5.70;1.40
2174;DHT22;1093;51.424;11.764;2023-11-19T01:38:50;5.80;1.40
2174;DHT22;1093;51.424;11.764;2023-11-19T01:41:17;5.80;1.40
2174;DHT22;1093;51.424;11.764;2023-11-19T01:43:44;5.80;1.40
2174;DHT22;1093;51.424;11.764;2023-11-19T01:46:14;5.80;1.40
2174;DHT22;1093;51.424;11.764;2023-11-19T01:48:43;5.80;1.40
2174;DHT22;1093;51.424;11.764;2023-11-19T01:51:11;5.80;1.40
2174;DHT22;1093;51.424;11.764;2023-11-19T01:53:39;5.80;1.40
2174;DHT22;1093;51.424;11.764;2023-11-19T01:56:08;5.80;1.40
2174;DHT22;1093;51.424;11.764;2023-11-19T01:58:35;5.80;1.40
2174;DHT22;1093;51.424;11.764;2023-11-19T02:01:03;5.90;1.40
2174;DHT22;1093;51.424;11.764;2023-11-19T02:03:32;5.90;1.40
2174;DHT22;1093;51.424;11.764;2023-11-19T02:05:59;5.80;1.40
2174;DHT22;1093;51.424;11.764;2023-11-19T02:08:26;5.90;1.40
2174;DHT22;1093;51.424;11.764;2023-11-19T02:10:53;5.90;1.40
2174;DHT22;1093;51.424;11.764;2023-11-19T02:13:22;5.90;1.40
2174;DHT22;1093;51.424;11.764;2023-11-19T02:15:49;5.90;1.40
2174;DHT22;1093;51.424;11.764;2023-11-19T02:18:17;5.90;1.40
2174;DHT22;1093;51.424;11.764;2023-11-19T02:20:46;6.00;1.40
2174;DHT22;1093;51.424;11.764;2023-11-19T02:23:13;6.00;1.40
2174;DHT22;1093;51.424;11.764;2023-11-19T02:25:40;6.00;1.40
2174;DHT22;1093;51.424;11.764;2023-11-19T02:28:09;6.10;1.40
2174;DHT22;1093;51.424;11.764;2023-11-19T02:30:38;6.10;1.40
2174;DHT22;1093;51.424;11.764;2023-11-19T02:33:04;6.10;1.40
2174;DHT22;1093;51.424;11.764;2023-11-19T02:35:32;6.10;1.40
2174;DHT22;1093;51.424;11.764;2023-11-19T02:37:59;6.10;1.40
2174;DHT22;1093;51.424;11.764;2023-11-19T02:40:26;6.00;1.40
2174;DHT22;1093;51.424;11.764;2023-11-19T02:42:53;6.10;1.40
2174;DHT22;1093;51.424;11.764;2023-11-19T02:45:22;6.10;1.40
2174;DHT22;1093;51.424;11.764;2023-11-19T02:47:49;6.10;1.40
2174;DHT22;1093;51.424;11.764;2023-11-19T02:50:17;6.10;1.40
2174;DHT22;1093;51.424;11.764;2023-11-19T02:52:51;6.10;1.40
2174;DHT22;1093;51.424;11.764;2023-11-19T02:55:19;6.10;1.40
2174;DHT22;1093;51.424;11.764;2023-11-19T02:57:46;6.20;1.40
2174;DHT22;1093;51.424;11.764;2023-11-19T03:00:14;6.30;1.40
2174;DHT22;1093;51.424;11.764;2023-11-19T03:02:43;6.30;1.40
2174;DHT22;1093;51.424;11.764;2023-11-19T03:05:11;6.30;1.40
2174;DHT22;1093;51.424;11.764;2023-11-19T03:07:40;6.30;1.40
2174;DHT22;1093;51.424;11.764;2023-11-19T03:10:09;6.40;1.40
2174;DHT22;1093;51.424;11.764;2023-11-19T03:12:39;6.40;1.40
2174;DHT22;1093;51.424;11.764;2023-11-19T03:15:07;6.40;1.40
2174;DHT22;1093;51.424;11.764;2023-11-19T03:17:35;6.40;1.40
2174;DHT22;1093;51.424;11.764;2023-11-19T03:20:05;6.40;1.40
2174;DHT22;1093;51.424;11.764;2023-11-19T03:22:35;6.40;1.40
2174;DHT22;1093;51.424;11.764;2023-11-19T03:25:04;6.40;1.40
2174;DHT22;1093;51.424;11.764;2023-11-19T03:27:33;6.40;1.40
2174;DHT22;1093;51.424;11.764;2023-11-19T03:30:01;6.40;1.40
2174;DHT22;1093;51.424;11.764;2023-11-19T03:32:28;6.50;1.40
2174;DHT22;1093;51.424;11.764;2023-11-19T03:34:55;6.50;1.40
2174;DHT22;1093;51.424;11.764;2023-11-19T03:37:23;6.60;1.40
2174;DHT22;1093;51.424;11.764;2023-11-19T03:39:50;6.60;1.40
2174;DHT22;1093;51.424;11.764;2023-11-19T03:42:19;6.70;1.40
2174;DHT22;1093;51.424;11.764;2023-11-19T03:44:46;6.70;1.40
2174;DHT22;1093;51.424;11.764;2023-11-19T03:47:14;6.80;1.40
2174;DHT22;1093;51.424;11.764;2023-11-19T03:49:41;6.80;1.40
2174;DHT22;1093;51.424;11.764;2023-11-19T03:52:09;6.80;1.40
2174;DHT22;1093;51.424;11.764;2023-11-19T03:54:37;6.90;1.40
2174;DHT22;1093;51.424;11.764;2023-11-19T03:57:04;6.90;1.40
2174;DHT22;1093;51.424;11.764;2023-11-19T03:59:31;6.90;1.40
2174;DHT22;1093;51.424;11.764;2023-11-19T04:01:59;6.90;1.40
2174;DHT22;1093;51.424;11.764;2023-11-19T04:04:28;7.00;1.40
2174;DHT22;1093;51.424;11.764;2023-11-19T04:06:55;7.00;1.40
2174;DHT22;1093;51.424;11.764;2023-11-19T04:09:23;7.10;1.40
2174;DHT22;1093;51.424;11.764;2023-11-19T04:11:52;7.10;1.40
2174;DHT22;1093;51.424;11.764;2023-11-19T04:14:18;7.10;1.40
2174;DHT22;1093;51.424;11.764;2023-11-19T04:16:45;7.10;1.40
2174;DHT22;1093;51.424;11.764;2023-11-19T04:19:12;7.10;1.40
2174;DHT22;1093;51.424;11.764;2023-11-19T04:21:40;7.10;1.40
2174;DHT22;1093;51.424;11.764;2023-11-19T04:24:08;7.10;1.40
2174;DHT22;1093;51.424;11.764;2023-11-19T04:26:40;7.20;1.40
2174;DHT22;1093;51.424;11.764;2023-11-19T04:29:08;7.20;1.40
2174;DHT22;1093;51.424;11.764;2023-11-19T04:31:36;7.30;1.40
2174;DHT22;1093;51.424;11.764;2023-11-19T04:34:03;7.20;1.40
2174;DHT22;1093;51.424;11.764;2023-11-19T04:36:30;7.30;1.40
2174;DHT22;1093;51.424;11.764;2023-11-19T04:38:57;7.40;1.40
2174;DHT22;1093;51.424;11.764;2023-11-19T04:41:25;7.40;1.40
2174;DHT22;1093;51.424;11.764;2023-11-19T04:43:53;7.40;1.40
2174;DHT22;1093;51.424;11.764;2023-11-19T04:46:21;7.40;1.40
2174;DHT22;1093;51.424;11.764;2023-11-19T04:48:49;7.40;1.40
2174;DHT22;1093;51.424;11.764;2023-11-19T04:51:16;7.40;1.40
2174;DHT22;1093;51.424;11.764;2023-11-19T04:53:42;7.40;1.40
2174;DHT22;1093;51.424;11.764;2023-11-19T04:56:10;7.40;1.40
2174;DHT22;1093;51.424;11.764;2023-11-19T04:58:37;7.50;1.40
2174;DHT22;1093;51.424;11.764;2023-11-19T05:01:04;7.50;1.40
2174;DHT22;1093;51.424;11.764;2023-11-19T05:03:32;7.50;1.40
2174;DHT22;1093;51.424;11.764;2023-11-19T05:05:59;7.50;1.40
2174;DHT22;1093;51.424;11.764;2023-11-19T05:08:26;7.50;1.40
2174;DHT22;1093;51.424;11.764;2023-11-19T05:10:53;7.50;1.40
2174;DHT22;1093;51.424;11.764;2023-11-19T05:13:20;7.50;1.40
2174;DHT22;1093;51.424;11.764;2023-11-19T05:15:47;7.50;1.40
2174;DHT22;1093;51.424;11.764;2023-11-19T05:18:14;7.50;1.40
2174;DHT22;1093;51.424;11.764;2023-11-19T05:20:42;7.50;1.40
2174;DHT22;1093;51.424;11.764;2023-11-19T05:23:09;7.50;1.40
2174;DHT22;1093;51.424;11.764;2023-11-19T05:25:37;7.40;1.40
2174;DHT22;1093;51.424;11.764;2023-11-19T05:28:03;7.50;1.40
2174;DHT22;1093;51.424;11.764;2023-11-19T05:30:30;7.50;1.40
2174;DHT22;1093;51.424;11.764;2023-11-19T05:32:57;7.60;1.40
2174;DHT22;1093;51.424;11.764;2023-11-19T05:35:24;7.60;1.40
2174;DHT22;1093;51.424;11.764;2023-11-19T05:37:52;7.70;1.40
2174;DHT22;1093;51.424;11.764;2023-11-19T05:40:19;7.70;1.40
2174;DHT22;1093;51.424;11.764;2023-11-19T05:42:46;7.80;1.40
2174;DHT22;1093;51.424;11.764;2023-11-19T05:45:13;7.90;1.40
2174;DHT22;1093;51.424;11.764;2023-11-19T05:47:40;8.00;1.40
2174;DHT22;1093;51.424;11.764;2023-11-19T05:50:09;8.10;1.40
2174;DHT22;1093;51.424;11.764;2023-11-19T05:52:36;8.10;1.40
2174;DHT22;1093;51.424;11.764;2023-11-19T05:55:04;8.20;1.40
2174;DHT22;1093;51.424;11.764;2023-11-19T05:57:35;8.20;1.40
2174;DHT22;1093;51.424;11.764;2023-11-19T06:00:02;8.20;1.40
2174;DHT22;1093;51.424;11.764;2023-11-19T06:02:32;8.20;1.40
2174;DHT22;1093;51.424;11.764;2023-11-19T06:04:59;8.20;1.40
2174;DHT22;1093;51.424;11.764;2023-11-19T06:07:26;8.20;1.40
2174;DHT22;1093;51.424;11.764;2023-11-19T06:09:52;8.20;1.40
2174;DHT22;1093;51.424;11.764;2023-11-19T06:12:21;8.20;1.40
2174;DHT22;1093;51.424;11.764;2023-11-19T06:14:47;8.20;1.40
2174;DHT22;1093;51.424;11.764;2023-11-19T06:17:14;8.20;1.40
2174;DHT22;1093;51.424;11.764;2023-11-19T06:19:41;8.20;1.40
2174;DHT22;1093;51.424;11.764;2023-11-19T06:22:08;8.20;1.40
2174;DHT22;1093;51.424;11.764;2023-11-19T06:24:35;8.20;1.40
2174;DHT22;1093;51.424;11.764;2023-11-19T06:27:02;8.10;1.40
2174;DHT22;1093;51.424;11.764;2023-11-19T06:29:31;8.10;1.40
2174;DHT22;1093;51.424;11.764;2023-11-19T06:31:58;8.10;1.40
2174;DHT22;1093;51.424;11.764;2023-11-19T06:34:24;8.20;1.40
2174;DHT22;1093;51.424;11.764;2023-11-19T06:36:51;8.10;1.40
2174;DHT22;1093;51.424;11.764;2023-11-19T06:39:18;8.10;1.40
2174;DHT22;1093;51.424;11.764;2023-11-19T06:41:45;8.20;1.40
2174;DHT22;1093;51.424;11.764;2023-11-19T06:44:12;8.20;1.40
2174;DHT22;1093;51.424;11.764;2023-11-19T06:46:41;8.20;1.40
2174;DHT22;1093;51.424;11.764;2023-11-19T06:49:08;8.20;1.40
2174;DHT22;1093;51.424;11.764;2023-11-19T06:51:35;8.20;1.40
2174;DHT22;1093;51.424;11.764;2023-11-19T06:54:01;8.20;1.40
2174;DHT22;1093;51.424;11.764;2023-11-19T06:56:28;8.30;1.40
2174;DHT22;1093;51.424;11.764;2023-11-19T06:58:55;8.20;1.40
2174;DHT22;1093;51.424;11.764;2023-11-19T07:01:22;8.30;1.40
2174;DHT22;1093;51.424;11.764;2023-11-19T07:03:50;8.30;1.40
2174;DHT22;1093;51.424;11.764;2023-11-19T07:06:17;8.30;1.40
2174;DHT22;1093;51.424;11.764;2023-11-19T07:08:44;8.40;1.40
2174;DHT22;1093;51.424;11.764;2023-11-19T07:11:12;8.40;1.40
2174;DHT22;1093;51.424;11.764;2023-11-19T07:13:40;8.40;1.40
2174;DHT22;1093;51.424;11.764;2023-11-19T07:16:07;8.50;1.40
2174;DHT22;1093;51.424;11.764;2023-11-19T07:18:36;8.40;1.40
2174;DHT22;1093;51.424;11.764;2023-11-19T07:21:06;8.50;1.40
2174;DHT22;1093;51.424;11.764;2023-11-19T07:23:36;8.50;1.40
2174;DHT22;1093;51.424;11.764;2023-11-19T07:26:05;8.60;1.40
2174;DHT22;1093;51.424;11.764;2023-11-19T07:28:33;8.60;1.40
2174;DHT22;1093;51.424;11.764;2023-11-19T07:31:00;8.60;1.40
2174;DHT22;1093;51.424;11.764;2023-11-19T07:33:27;8.60;1.40
2174;DHT22;1093;51.424;11.764;2023-11-19T07:35:55;8.70;1.40
2174;DHT22;1093;51.424;11.764;2023-11-19T07:38:23;8.70;1.40
2174;DHT22;1093;51.424;11.764;2023-11-19T07:40:50;8.70;1.40
2174;DHT22;1093;51.424;11.764;2023-11-19T07:43:16;8.80;1.40
2174;DHT22;1093;51.424;11.764;2023-11-19T07:45:43;8.80;1.40
2174;DHT22;1093;51.424;11.764;2023-11-19T07:48:11;8.80;1.40
2174;DHT22;1093;51.424;11.764;2023-11-19T07:50:39;8.80;1.40
2174;DHT22;1093;51.424;11.764;2023-11-19T07:53:06;8.80;1.40
2174;DHT22;1093;51.424;11.764;2023-11-19T07:55:35;8.80;1.40
2174;DHT22;1093;51.424;11.764;2023-11-19T07:58:02;8.90;1.40
2174;DHT22;1093;51.424;11.764;2023-11-19T08:00:29;9.10;1.40
2174;DHT22;1093;51.424;11.764;2023-11-19T08:02:56;9.20;1.40
2174;DHT22;1093;51.424;11.764;2023-11-19T08:05:23;9.30;1.40
2174;DHT22;1093;51.424;11.764;2023-11-19T08:07:50;9.40;1.40
2174;DHT22;1093;51.424;11.764;2023-11-19T08:10:18;9.40;1.40
2174;DHT22;1093;51.424;11.764;2023-11-19T08:12:46;9.50;1.40
2174;DHT22;1093;51.424;11.764;2023-11-19T08:15:13;9.60;1.40
2174;DHT22;1093;51.424;11.764;2023-11-19T08:17:41;9.70;1.40
2174;DHT22;1093;51.424;11.764;2023-11-19T08:20:10;9.90;1.40
2174;DHT22;1093;51.424;11.764;2023-11-19T08:22:37;10.00;1.40
2174;DHT22;1093;51.424;11.764;2023-11-19T08:25:04;10.10;1.40
2174;DHT22;1093;51.424;11.764;2023-11-19T08:27:32;10.10;1.40
2174;DHT22;1093;51.424;11.764;2023-11-19T08:30:00;10.10;1.40
2174;DHT22;1093;51.424;11.764;2023-11-19T08:32:27;10.20;1.40
2174;DHT22;1093;51.424;11.764;2023-11-19T08:34:54;10.20;1.40
2174;DHT22;1093;51.424;11.764;2023-11-19T08:37:21;10.20;1.40
2174;DHT22;1093;51.424;11.764;2023-11-19T08:39:48;10.20;1.40
2174;DHT22;1093;51.424;11.764;2023-11-19T08:42:15;10.20;1.40
2174;DHT22;1093;51.424;11.764;2023-11-19T08:44:42;10.20;1.40
2174;DHT22;1093;51.424;11.764;2023-11-19T08:47:11;10.20;1.40
2174;DHT22;1093;51.424;11.764;2023-11-19T08:49:38;10.30;1.40
2174;DHT22;1093;51.424;11.764;2023-11-19T08:52:05;10.30;1.40
2174;DHT22;1093;51.424;11.764;2023-11-19T08:54:32;10.30;1.40
2174;DHT22;1093;51.424;11.764;2023-11-19T08:56:59;10.30;1.40
2174;DHT22;1093;51.424;11.764;2023-11-19T08:59:28;10.40;1.40
2174;DHT22;1093;51.424;11.764;2023-11-19T09:01:55;10.40;1.40
2174;DHT22;1093;51.424;11.764;2023-11-19T09:04:23;10.40;1.40
2174;DHT22;1093;51.424;11.764;2023-11-19T09:06:50;10.40;1.40
2174;DHT22;1093;51.424;11.764;2023-11-19T09:09:17;10.40;1.40
2174;DHT22;1093;51.424;11.764;2023-11-19T09:11:44;10.50;1.40
2174;DHT22;1093;51.424;11.764;2023-11-19T09:14:11;10.50;1.40
2174;DHT22;1093;51.424;11.764;2023-11-19T09:16:37;10.50;1.40
2174;DHT22;1093;51.424;11.764;2023-11-19T09:19:04;10.50;1.40
2174;DHT22;1093;51.424;11.764;2023-11-19T09:21:32;10.50;1.40
2174;DHT22;1093;51.424;11.764;2023-11-19T09:24:03;10.60;1.40
2174;DHT22;1093;51.424;11.764;2023-11-19T09:26:30;10.60;1.40
2174;DHT22;1093;51.424;11.764;2023-11-19T09:28:57;10.60;1.40
2174;DHT22;1093;51.424;11.764;2023-11-19T09:31:24;10.70;1.40
2174;DHT22;1093;51.424;11.764;2023-11-19T09:33:51;10.70;1.40
2174;DHT22;1093;51.424;11.764;2023-11-19T09:36:18;10.70;1.40
2174;DHT22;1093;51.424;11.764;2023-11-19T09:38:46;10.80;1.40
2174;DHT22;1093;51.424;11.764;2023-11-19T09:41:13;10.80;1.40
2174;DHT22;1093;51.424;11.764;2023-11-19T09:43:40;10.90;1.40
2174;DHT22;1093;51.424;11.764;2023-11-19T09:46:09;11.00;1.40
2174;DHT22;1093;51.424;11.764;2023-11-19T09:48:37;11.00;1.40
2174;DHT22;1093;51.424;11.764;2023-11-19T09:51:06;11.10;1.40
2174;DHT22;1093;51.424;11.764;2023-11-19T09:53:34;11.20;1.40
2174;DHT22;1093;51.424;11.764;2023-11-19T09:56:04;11.20;1.40
2174;DHT22;1093;51.424;11.764;2023-11-19T09:58:31;11.20;1.40
2174;DHT22;1093;51.424;11.764;2023-11-19T10:00:59;11.20;1.40
2174;DHT22;1093;51.424;11.764;2023-11-19T10:03:27;11.30;1.40
2174;DHT22;1093;51.424;11.764;2023-11-19T10:06:01;11.30;1.40
2174;DHT22;1093;51.424;11.764;2023-11-19T10:08:28;11.50;1.40
2174;DHT22;1093;51.424;11.764;2023-11-19T10:10:55;11.50;1.40
2174;DHT22;1093;51.424;11.764;2023-11-19T10:13:28;11.60;1.40
2174;DHT22;1093;51.424;11.764;2023-11-19T10:15:56;11.70;1.40
2174;DHT22;1093;51.424;11.764;2023-11-19T10:18:25;11.70;1.40
2174;DHT22;1093;51.424;11.764;2023-11-19T10:20:53;11.80;1.40
2174;DHT22;1093;51.424;11.764;2023-11-19T10:23:20;12.00;1.40
2174;DHT22;1093;51.424;11.764;2023-11-19T10:25:47;12.20;1.40
2174;DHT22;1093;51.424;11.764;2023-11-19T10:28:15;12.30;1.40
2174;DHT22;1093;51.424;11.764;2023-11-19T10:30:44;12.50;1.40
2174;DHT22;1093;51.424;11.764;2023-11-19T10:33:12;12.50;1.40
2174;DHT22;1093;51.424;11.764;2023-11-19T10:35:52;12.60;1.40
2174;DHT22;1093;51.424;11.764;2023-11-19T10:38:20;12.80;1.40
2174;DHT22;1093;51.424;11.764;2023-11-19T10:40:48;12.90;1.40
2174;DHT22;1093;51.424;11.764;2023-11-19T10:43:14;13.00;1.40
2174;DHT22;1093;51.424;11.764;2023-11-19T10:45:41;13.00;1.40
2174;DHT22;1093;51.424;11.764;2023-11-19T10:48:10;13.00;1.40
2174;DHT22;1093;51.424;11.764;2023-11-19T10:50:39;13.10;1.40
2174;DHT22;1093;51.424;11.764;2023-11-19T10:53:08;13.10;1.40
2174;DHT22;1093;51.424;11.764;2023-11-19T10:55:36;13.10;1.40
2174;DHT22;1093;51.424;11.764;2023-11-19T10:58:05;13.10;1.40
2174;DHT22;1093;51.424;11.764;2023-11-19T11:00:37;13.10;1.40
2174;DHT22;1093;51.424;11.764;2023-11-19T11:03:11;13.10;1.40
2174;DHT22;1093;51.424;11.764;2023-11-19T11:05:38;13.10;1.40
2174;DHT22;1093;51.424;11.764;2023-11-19T11:08:06;13.10;1.40
2174;DHT22;1093;51.424;11.764;2023-11-19T11:10:39;13.00;1.40
2174;DHT22;1093;51.424;11.764;2023-11-19T11:13:06;13.00;1.40
2174;DHT22;1093;51.424;11.764;2023-11-19T11:15:34;12.90;1.40
2174;DHT22;1093;51.424;11.764;2023-11-19T11:18:02;12.80;1.40
2174;DHT22;1093;51.424;11.764;2023-11-19T11:20:31;12.80;1.40
2174;DHT22;1093;51.424;11.764;2023-11-19T11:23:19;12.80;1.40
2174;DHT22;1093;51.424;11.764;2023-11-19T11:25:56;12.80;1.40
2174;DHT22;1093;51.424;11.764;2023-11-19T11:28:32;12.70;1.40
2174;DHT22;1093;51.424;11.764;2023-11-19T11:31:29;12.60;1.40
2174;DHT22;1093;51.424;11.764;2023-11-19T11:34:21;12.60;1.40
2174;DHT22;1093;51.424;11.764;2023-11-19T11:37:06;12.50;1.40
2174;DHT22;1093;51.424;11.764;2023-11-19T11:39:37;12.50;1.40
2174;DHT22;1093;51.424;11.764;2023-11-19T11:42:36;12.60;1.40
2174;DHT22;1093;51.424;11.764;2023-11-19T11:45:05;12.50;1.40
2174;DHT22;1093;51.424;11.764;2023-11-19T11:50:54;12.60;1.40
2174;DHT22;1093;51.424;11.764;2023-11-19T11:53:24;12.70;1.40
2174;DHT22;1093;51.424;11.764;2023-11-19T11:55:58;12.80;1.40
2174;DHT22;1093;51.424;11.764;2023-11-19T11:58:35;12.90;1.40
2174;DHT22;1093;51.424;11.764;2023-11-19T12:01:04;12.90;1.40
2174;DHT22;1093;51.424;11.764;2023-11-19T12:03:32;12.90;1.40
2174;DHT22;1093;51.424;11.764;2023-11-19T12:05:59;13.00;1.40
2174;DHT22;1093;51.424;11.764;2023-11-19T12:08:29;13.00;1.40
2174;DHT22;1093;51.424;11.764;2023-11-19T12:15:01;13.10;1.40
2174;DHT22;1093;51.424;11.764;2023-11-19T12:17:47;13.00;1.40
2174;DHT22;1093;51.424;11.764;2023-11-19T12:20:16;13.00;1.40
2174;DHT22;1093;51.424;11.764;2023-11-19T12:22:44;13.00;1.40
2174;DHT22;1093;51.424;11.764;2023-11-19T12:27:50;12.90;1.40
2174;DHT22;1093;51.424;11.764;2023-11-19T12:30:37;13.00;1.40
2174;DHT22;1093;51.424;11.764;2023-11-19T12:33:27;13.00;1.40
2174;DHT22;1093;51.424;11.764;2023-11-19T12:35:58;12.90;1.40
2174;DHT22;1093;51.424;11.764;2023-11-19T12:39:20;12.90;1.40
2174;DHT22;1093;51.424;11.764;2023-11-19T12:41:53;12.90;1.40
2174;DHT22;1093;51.424;11.764;2023-11-19T12:44:31;12.80;1.40
2174;DHT22;1093;51.424;11.764;2023-11-19T12:47:05;12.80;1.40
2174;DHT22;1093;51.424;11.764;2023-11-19T12:49:36;12.90;1.40
2174;DHT22;1093;51.424;11.764;2023-11-19T12:52:12;12.90;1.40
2174;DHT22;1093;51.424;11.764;2023-11-19T12:54:45;12.90;1.40
2174;DHT22;1093;51.424;11.764;2023-11-19T12:57:12;12.90;1.40
2174;DHT22;1093;51.424;11.764;2023-11-19T12:59:41;12.90;1.40
2174;DHT22;1093;51.424;11.764;2023-11-19T13:02:18;12.90;1.40
2174;DHT22;1093;51.424;11.764;2023-11-19T13:04:47;12.80;1.40
2174;DHT22;1093;51.424;11.764;2023-11-19T13:10:29;12.80;1.40
2174;DHT22;1093;51.424;11.764;2023-11-19T13:13:01;12.80;1.40
2174;DHT22;1093;51.424;11.764;2023-11-19T13:15:30;12.80;1.40
2174;DHT22;1093;51.424;11.764;2023-11-19T13:18:01;12.80;1.40
2174;DHT22;1093;51.424;11.764;2023-11-19T13:20:36;12.70;1.40
2174;DHT22;1093;51.424;11.764;2023-11-19T13:23:09;12.80;1.40
2174;DHT22;1093;51.424;11.764;2023-11-19T13:25:37;12.70;1.40
2174;DHT22;1093;51.424;11.764;2023-11-19T13:28:04;12.70;1.40
2174;DHT22;1093;51.424;11.764;2023-11-19T13:30:36;12.70;1.40
2174;DHT22;1093;51.424;11.764;2023-11-19T13:33:04;12.60;1.40
2174;DHT22;1093;51.424;11.764;2023-11-19T13:35:31;12.60;1.40
2174;DHT22;1093;51.424;11.764;2023-11-19T13:37:58;12.50;1.40
2174;DHT22;1093;51.424;11.764;2023-11-19T13:40:31;12.50;1.40
2174;DHT22;1093;51.424;11.764;2023-11-19T13:43:00;12.60;1.40
2174;DHT22;1093;51.424;11.764;2023-11-19T13:45:27;12.50;1.40
2174;DHT22;1093;51.424;11.764;2023-11-19T13:47:57;12.40;1.40
2174;DHT22;1093;51.424;11.764;2023-11-19T13:50:24;12.40;1.40
2174;DHT22;1093;51.424;11.764;2023-11-19T13:52:52;12.30;1.40
2174;DHT22;1093;51.424;11.764;2023-11-19T13:55:20;12.20;1.40
2174;DHT22;1093;51.424;11.764;2023-11-19T13:57:49;12.20;1.40
2174;DHT22;1093;51.424;11.764;2023-11-19T14:00:17;12.20;1.40
2174;DHT22;1093;51.424;11.764;2023-11-19T14:02:45;12.30;1.40
2174;DHT22;1093;51.424;11.764;2023-11-19T14:05:20;12.30;1.40
2174;DHT22;1093;51.424;11.764;2023-11-19T14:07:50;12.30;1.40
2174;DHT22;1093;51.424;11.764;2023-11-19T14:10:31;12.30;1.40
2174;DHT22;1093;51.424;11.764;2023-11-19T14:13:04;12.40;1.40
2174;DHT22;1093;51.424;11.764;2023-11-19T14:15:33;12.40;1.40
2174;DHT22;1093;51.424;11.764;2023-11-19T14:18:01;12.40;1.40
2174;DHT22;1093;51.424;11.764;2023-11-19T14:20:30;12.40;1.40
2174;DHT22;1093;51.424;11.764;2023-11-19T14:23:04;12.50;1.40
2174;DHT22;1093;51.424;11.764;2023-11-19T14:25:31;12.40;1.40
2174;DHT22;1093;51.424;11.764;2023-11-19T14:28:00;12.40;1.40
2174;DHT22;1093;51.424;11.764;2023-11-19T14:30:29;12.40;1.40
2174;DHT22;1093;51.424;11.764;2023-11-19T14:32:56;12.50;1.40
2174;DHT22;1093;51.424;11.764;2023-11-19T14:35:25;12.50;1.40
2174;DHT22;1093;51.424;11.764;2023-11-19T14:37:57;12.40;1.40
2174;DHT22;1093;51.424;11.764;2023-11-19T14:40:24;12.40;1.40
2174;DHT22;1093;51.424;11.764;2023-11-19T14:42:51;12.40;1.40
2174;DHT22;1093;51.424;11.764;2023-11-19T14:45:22;12.20;1.40
2174;DHT22;1093;51.424;11.764;2023-11-19T14:47:49;12.20;1.40
2174;DHT22;1093;51.424;11.764;2023-11-19T14:50:20;12.10;1.40
2174;DHT22;1093;51.424;11.764;2023-11-19T14:52:51;12.10;1.40
2174;DHT22;1093;51.424;11.764;2023-11-19T14:55:20;12.00;1.40
2174;DHT22;1093;51.424;11.764;2023-11-19T14:57:47;11.90;1.40
2174;DHT22;1093;51.424;11.764;2023-11-19T15:03:38;11.80;1.40
2174;DHT22;1093;51.424;11.764;2023-11-19T15:06:05;11.70;1.40
2174;DHT22;1093;51.424;11.764;2023-11-19T15:08:32;11.70;1.40
2174;DHT22;1093;51.424;11.764;2023-11-19T15:11:05;11.60;1.40
2174;DHT22;1093;51.424;11.764;2023-11-19T15:13:32;11.50;1.40
2174;DHT22;1093;51.424;11.764;2023-11-19T15:16:01;11.50;1.40
2174;DHT22;1093;51.424;11.764;2023-11-19T15:18:31;11.50;1.40
2174;DHT22;1093;51.424;11.764;2023-11-19T15:20:58;11.40;1.40
2174;DHT22;1093;51.424;11.764;2023-11-19T15:23:25;11.40;1.40
2174;DHT22;1093;51.424;11.764;2023-11-19T15:25:52;11.30;1.40
2174;DHT22;1093;51.424;11.764;2023-11-19T15:28:20;11.30;1.40
2174;DHT22;1093;51.424;11.764;2023-11-19T15:30:51;11.30;1.40
2174;DHT22;1093;51.424;11.764;2023-11-19T15:33:18;11.20;1.40
2174;DHT22;1093;51.424;11.764;2023-11-19T15:35:46;11.20;1.40
2174;DHT22;1093;51.424;11.764;2023-11-19T15:38:22;11.20;1.40
2174;DHT22;1093;51.424;11.764;2023-11-19T15:40:49;11.10;1.40
2174;DHT22;1093;51.424;11.764;2023-11-19T15:43:16;11.10;1.40
2174;DHT22;1093;51.424;11.764;2023-11-19T15:45:46;11.00;1.40
2174;DHT22;1093;51.424;11.764;2023-11-19T15:48:13;11.00;1.40
2174;DHT22;1093;51.424;11.764;2023-11-19T15:50:40;11.00;1.40
2174;DHT22;1093;51.424;11.764;2023-11-19T15:53:09;11.00;1.40
2174;DHT22;1093;51.424;11.764;2023-11-19T15:55:39;11.00;1.40
2174;DHT22;1093;51.424;11.764;2023-11-19T15:58:06;11.00;1.40
2174;DHT22;1093;51.424;11.764;2023-11-19T16:00:33;11.00;1.40
2174;DHT22;1093;51.424;11.764;2023-11-19T16:03:03;11.00;1.40
2174;DHT22;1093;51.424;11.764;2023-11-19T16:05:34;11.10;1.40
2174;DHT22;1093;51.424;11.764;2023-11-19T16:08:04;11.10;1.40
2174;DHT22;1093;51.424;11.764;2023-11-19T16:10:37;11.10;1.40
2174;DHT22;1093;51.424;11.764;2023-11-19T16:13:11;11.20;1.40
2174;DHT22;1093;51.424;11.764;2023-11-19T16:15:40;11.30;1.40
2174;DHT22;1093;51.424;11.764;2023-11-19T16:18:17;11.20;1.40
2174;DHT22;1093;51.424;11.764;2023-11-19T16:20:47;11.10;1.40
2174;DHT22;1093;51.424;11.764;2023-11-19T16:23:16;11.10;1.40
2174;DHT22;1093;51.424;11.764;2023-11-19T16:25:45;11.10;1.40
2174;DHT22;1093;51.424;11.764;2023-11-19T16:28:29;11.00;1.40
2174;DHT22;1093;51.424;11.764;2023-11-19T16:30:56;11.10;1.40
2174;DHT22;1093;51.424;11.764;2023-11-19T16:37:18;11.20;1.40
2174;DHT22;1093;51.424;11.764;2023-11-19T16:39:54;11.10;1.40